sensor_id;sensor_type;location;lat;lon;timestamp;P1;durP1;ratioP1;P2;durP2;ratioP2
43325;SDS011;28920;59.862;30.636;2022-09-16T00:00:54;7.28;;;4.62;;
43325;SDS011;28920;59.862;30.636;2022-09-16T00:03:22;9.95;;;6.40;;
43325;SDS011;28920;59.862;30.636;2022-09-16T00:05:51;8.02;;;4.28;;
43325;SDS011;28920;59.862;30.636;2022-09-16T00:08:20;6.82;;;4.60;;
43325;SDS011;28920;59.862;30.636;2022-09-16T00:10:48;10.38;;;4.72;;
43325;SDS011;28920;59.862;30.636;2022-09-16T00:13:17;7.12;;;4.72;;
43325;SDS011;28920;59.862;30.636;2022-09-16T00:15:46;8.45;;;4.87;;
43325;SDS011;28920;59.862;30.636;2022-09-16T00:18:16;9.87;;;4.57;;
43325;SDS011;28920;59.862;30.636;2022-09-16T00:20:45;7.82;;;4.37;;
43325;SDS011;28920;59.862;30.636;2022-09-16T00:23:16;6.72;;;4.22;;
43325;SDS011;28920;59.862;30.636;2022-09-16T00:25:48;5.53;;;3.90;;
43325;SDS011;28920;59.862;30.636;2022-09-16T00:28:17;10.50;;;4.57;;
43325;SDS011;28920;59.862;30.636;2022-09-16T00:30:47;5.65;;;4.37;;
43325;SDS011;28920;59.862;30.636;2022-09-16T00:33:15;8.40;;;4.12;;
43325;SDS011;28920;59.862;30.636;2022-09-16T00:35:43;5.65;;;4.22;;
43325;SDS011;28920;59.862;30.636;2022-09-16T00:38:12;5.80;;;3.58;;
43325;SDS011;28920;59.862;30.636;2022-09-16T00:40:44;5.43;;;3.65;;
43325;SDS011;28920;59.862;30.636;2022-09-16T00:43:13;5.07;;;3.85;;
43325;SDS011;28920;59.862;30.636;2022-09-16T00:45:42;6.80;;;4.47;;
43325;SDS011;28920;59.862;30.636;2022-09-16T00:48:14;7.40;;;4.10;;
43325;SDS011;28920;59.862;30.636;2022-09-16T00:50:47;9.60;;;4.68;;
43325;SDS011;28920;59.862;30.636;2022-09-16T00:53:19;6.30;;;4.15;;
43325;SDS011;28920;59.862;30.636;2022-09-16T00:55:50;8.27;;;4.12;;
43325;SDS011;28920;59.862;30.636;2022-09-16T00:58:22;8.50;;;4.45;;
43325;SDS011;28920;59.862;30.636;2022-09-16T01:00:57;6.75;;;3.90;;
43325;SDS011;28920;59.862;30.636;2022-09-16T01:03:26;4.90;;;3.65;;
43325;SDS011;28920;59.862;30.636;2022-09-16T01:05:55;5.25;;;3.90;;
43325;SDS011;28920;59.862;30.636;2022-09-16T01:08:23;7.45;;;3.87;;
43325;SDS011;28920;59.862;30.636;2022-09-16T01:10:53;7.68;;;3.47;;
43325;SDS011;28920;59.862;30.636;2022-09-16T01:13:21;8.45;;;3.80;;
43325;SDS011;28920;59.862;30.636;2022-09-16T01:15:50;4.18;;;3.15;;
43325;SDS011;28920;59.862;30.636;2022-09-16T01:18:27;6.03;;;3.25;;
43325;SDS011;28920;59.862;30.636;2022-09-16T01:21:17;6.25;;;3.45;;
43325;SDS011;28920;59.862;30.636;2022-09-16T01:33:22;5.65;;;3.12;;
43325;SDS011;28920;59.862;30.636;2022-09-16T01:36:11;4.87;;;3.75;;
43325;SDS011;28920;59.862;30.636;2022-09-16T01:38:54;3.65;;;3.35;;
43325;SDS011;28920;59.862;30.636;2022-09-16T01:41:32;4.80;;;3.17;;
43325;SDS011;28920;59.862;30.636;2022-09-16T01:44:11;6.10;;;3.60;;
43325;SDS011;28920;59.862;30.636;2022-09-16T01:46:56;5.90;;;3.50;;
43325;SDS011;28920;59.862;30.636;2022-09-16T01:49:33;7.00;;;3.30;;
43325;SDS011;28920;59.862;30.636;2022-09-16T01:52:10;7.22;;;4.93;;
43325;SDS011;28920;59.862;30.636;2022-09-16T01:54:47;6.25;;;4.32;;
43325;SDS011;28920;59.862;30.636;2022-09-16T01:57:20;7.07;;;4.10;;
43325;SDS011;28920;59.862;30.636;2022-09-16T01:59:55;6.15;;;3.33;;
43325;SDS011;28920;59.862;30.636;2022-09-16T02:02:29;7.47;;;4.07;;
43325;SDS011;28920;59.862;30.636;2022-09-16T02:05:03;7.62;;;3.80;;
43325;SDS011;28920;59.862;30.636;2022-09-16T02:10:06;5.83;;;3.40;;
43325;SDS011;28920;59.862;30.636;2022-09-16T02:12:40;5.28;;;3.42;;
43325;SDS011;28920;59.862;30.636;2022-09-16T02:15:11;5.37;;;3.80;;
43325;SDS011;28920;59.862;30.636;2022-09-16T02:17:49;5.07;;;3.78;;
43325;SDS011;28920;59.862;30.636;2022-09-16T02:20:24;8.15;;;3.47;;
43325;SDS011;28920;59.862;30.636;2022-09-16T02:22:54;6.75;;;3.37;;
43325;SDS011;28920;59.862;30.636;2022-09-16T02:25:27;5.12;;;3.30;;
43325;SDS011;28920;59.862;30.636;2022-09-16T02:27:58;4.25;;;3.40;;
43325;SDS011;28920;59.862;30.636;2022-09-16T02:30:28;6.20;;;3.03;;
43325;SDS011;28920;59.862;30.636;2022-09-16T02:32:59;8.13;;;3.70;;
43325;SDS011;28920;59.862;30.636;2022-09-16T02:35:30;7.00;;;3.40;;
43325;SDS011;28920;59.862;30.636;2022-09-16T02:38:03;6.07;;;3.83;;
43325;SDS011;28920;59.862;30.636;2022-09-16T02:40:39;6.45;;;3.83;;
43325;SDS011;28920;59.862;30.636;2022-09-16T02:43:12;5.97;;;4.15;;
43325;SDS011;28920;59.862;30.636;2022-09-16T02:45:45;4.95;;;4.05;;
43325;SDS011;28920;59.862;30.636;2022-09-16T02:48:22;5.37;;;3.30;;
43325;SDS011;28920;59.862;30.636;2022-09-16T02:50:59;3.78;;;3.33;;
43325;SDS011;28920;59.862;30.636;2022-09-16T02:53:37;5.20;;;3.33;;
43325;SDS011;28920;59.862;30.636;2022-09-16T02:56:13;4.97;;;3.37;;
43325;SDS011;28920;59.862;30.636;2022-09-16T02:58:48;7.40;;;3.62;;
43325;SDS011;28920;59.862;30.636;2022-09-16T03:01:17;6.85;;;3.37;;
43325;SDS011;28920;59.862;30.636;2022-09-16T03:03:47;4.18;;;3.37;;
43325;SDS011;28920;59.862;30.636;2022-09-16T03:06:17;5.12;;;3.42;;
43325;SDS011;28920;59.862;30.636;2022-09-16T03:21:53;4.57;;;3.62;;
43325;SDS011;28920;59.862;30.636;2022-09-16T03:24:34;6.15;;;3.20;;
43325;SDS011;28920;59.862;30.636;2022-09-16T03:27:14;4.78;;;2.97;;
43325;SDS011;28920;59.862;30.636;2022-09-16T03:29:47;4.45;;;3.25;;
43325;SDS011;28920;59.862;30.636;2022-09-16T03:32:23;6.05;;;3.80;;
43325;SDS011;28920;59.862;30.636;2022-09-16T03:34:55;7.87;;;3.60;;
43325;SDS011;28920;59.862;30.636;2022-09-16T03:37:28;6.00;;;4.00;;
43325;SDS011;28920;59.862;30.636;2022-09-16T03:39:59;5.03;;;3.45;;
43325;SDS011;28920;59.862;30.636;2022-09-16T03:42:32;4.65;;;3.05;;
43325;SDS011;28920;59.862;30.636;2022-09-16T03:45:00;6.43;;;3.42;;
43325;SDS011;28920;59.862;30.636;2022-09-16T03:47:28;8.43;;;3.15;;
43325;SDS011;28920;59.862;30.636;2022-09-16T03:49:56;4.75;;;2.95;;
43325;SDS011;28920;59.862;30.636;2022-09-16T03:52:24;4.40;;;2.70;;
43325;SDS011;28920;59.862;30.636;2022-09-16T03:54:53;4.75;;;2.97;;
43325;SDS011;28920;59.862;30.636;2022-09-16T03:57:21;4.85;;;3.28;;
43325;SDS011;28920;59.862;30.636;2022-09-16T03:59:49;5.18;;;3.15;;
43325;SDS011;28920;59.862;30.636;2022-09-16T04:02:17;8.63;;;4.30;;
43325;SDS011;28920;59.862;30.636;2022-09-16T04:04:45;5.87;;;3.00;;
43325;SDS011;28920;59.862;30.636;2022-09-16T04:07:13;5.37;;;2.72;;
43325;SDS011;28920;59.862;30.636;2022-09-16T04:09:41;5.80;;;2.72;;
43325;SDS011;28920;59.862;30.636;2022-09-16T04:12:10;5.68;;;2.62;;
43325;SDS011;28920;59.862;30.636;2022-09-16T04:14:38;3.65;;;2.87;;
43325;SDS011;28920;59.862;30.636;2022-09-16T04:17:06;4.18;;;2.30;;
43325;SDS011;28920;59.862;30.636;2022-09-16T04:19:34;6.05;;;2.70;;
43325;SDS011;28920;59.862;30.636;2022-09-16T04:22:02;5.50;;;3.12;;
43325;SDS011;28920;59.862;30.636;2022-09-16T04:24:29;3.78;;;2.67;;
43325;SDS011;28920;59.862;30.636;2022-09-16T04:26:57;5.20;;;2.25;;
43325;SDS011;28920;59.862;30.636;2022-09-16T04:29:27;6.70;;;3.30;;
43325;SDS011;28920;59.862;30.636;2022-09-16T04:31:54;2.55;;;2.25;;
43325;SDS011;28920;59.862;30.636;2022-09-16T04:34:23;6.72;;;2.83;;
43325;SDS011;28920;59.862;30.636;2022-09-16T04:36:50;5.45;;;2.75;;
43325;SDS011;28920;59.862;30.636;2022-09-16T04:39:18;4.95;;;2.95;;
43325;SDS011;28920;59.862;30.636;2022-09-16T04:41:46;4.87;;;2.90;;
43325;SDS011;28920;59.862;30.636;2022-09-16T04:44:14;4.95;;;3.17;;
43325;SDS011;28920;59.862;30.636;2022-09-16T04:46:43;4.50;;;2.97;;
43325;SDS011;28920;59.862;30.636;2022-09-16T04:49:11;6.93;;;2.50;;
43325;SDS011;28920;59.862;30.636;2022-09-16T04:51:39;3.60;;;2.80;;
43325;SDS011;28920;59.862;30.636;2022-09-16T04:54:07;6.65;;;2.83;;
43325;SDS011;28920;59.862;30.636;2022-09-16T04:56:37;3.03;;;2.28;;
43325;SDS011;28920;59.862;30.636;2022-09-16T04:59:04;3.03;;;2.65;;
43325;SDS011;28920;59.862;30.636;2022-09-16T05:01:33;4.22;;;2.60;;
43325;SDS011;28920;59.862;30.636;2022-09-16T05:04:05;5.97;;;2.40;;
43325;SDS011;28920;59.862;30.636;2022-09-16T05:06:35;4.75;;;2.37;;
43325;SDS011;28920;59.862;30.636;2022-09-16T05:09:04;3.92;;;2.12;;
43325;SDS011;28920;59.862;30.636;2022-09-16T05:11:33;4.62;;;1.80;;
43325;SDS011;28920;59.862;30.636;2022-09-16T05:14:04;4.47;;;2.17;;
43325;SDS011;28920;59.862;30.636;2022-09-16T05:16:33;3.70;;;2.00;;
43325;SDS011;28920;59.862;30.636;2022-09-16T05:19:02;3.55;;;2.78;;
43325;SDS011;28920;59.862;30.636;2022-09-16T05:21:32;3.55;;;2.60;;
43325;SDS011;28920;59.862;30.636;2022-09-16T05:24:03;6.00;;;3.33;;
43325;SDS011;28920;59.862;30.636;2022-09-16T05:26:34;6.18;;;3.40;;
43325;SDS011;28920;59.862;30.636;2022-09-16T05:29:04;7.40;;;3.90;;
43325;SDS011;28920;59.862;30.636;2022-09-16T05:31:33;8.70;;;3.92;;
43325;SDS011;28920;59.862;30.636;2022-09-16T05:34:03;8.27;;;4.75;;
43325;SDS011;28920;59.862;30.636;2022-09-16T05:36:34;10.30;;;5.32;;
43325;SDS011;28920;59.862;30.636;2022-09-16T05:41:32;6.50;;;3.83;;
43325;SDS011;28920;59.862;30.636;2022-09-16T05:44:00;3.95;;;2.90;;
43325;SDS011;28920;59.862;30.636;2022-09-16T05:46:29;8.80;;;2.72;;
43325;SDS011;28920;59.862;30.636;2022-09-16T05:48:57;4.32;;;1.95;;
43325;SDS011;28920;59.862;30.636;2022-09-16T05:51:25;2.95;;;1.87;;
43325;SDS011;28920;59.862;30.636;2022-09-16T05:53:54;2.72;;;1.80;;
43325;SDS011;28920;59.862;30.636;2022-09-16T05:56:23;4.95;;;2.20;;
43325;SDS011;28920;59.862;30.636;2022-09-16T05:58:52;3.33;;;1.75;;
43325;SDS011;28920;59.862;30.636;2022-09-16T06:01:21;6.20;;;1.85;;
43325;SDS011;28920;59.862;30.636;2022-09-16T06:03:51;5.37;;;1.60;;
43325;SDS011;28920;59.862;30.636;2022-09-16T06:06:21;2.50;;;1.62;;
43325;SDS011;28920;59.862;30.636;2022-09-16T06:08:52;2.30;;;1.70;;
43325;SDS011;28920;59.862;30.636;2022-09-16T06:11:23;3.53;;;1.87;;
43325;SDS011;28920;59.862;30.636;2022-09-16T06:13:53;4.72;;;1.50;;
43325;SDS011;28920;59.862;30.636;2022-09-16T06:16:21;2.47;;;1.52;;
43325;SDS011;28920;59.862;30.636;2022-09-16T06:18:51;3.08;;;1.42;;
43325;SDS011;28920;59.862;30.636;2022-09-16T06:21:20;3.47;;;1.70;;
43325;SDS011;28920;59.862;30.636;2022-09-16T06:23:48;5.32;;;1.67;;
43325;SDS011;28920;59.862;30.636;2022-09-16T06:26:18;4.07;;;1.40;;
43325;SDS011;28920;59.862;30.636;2022-09-16T06:28:48;1.80;;;1.40;;
43325;SDS011;28920;59.862;30.636;2022-09-16T06:31:16;3.10;;;1.60;;
43325;SDS011;28920;59.862;30.636;2022-09-16T06:33:46;2.60;;;1.40;;
43325;SDS011;28920;59.862;30.636;2022-09-16T06:36:16;3.78;;;1.70;;
43325;SDS011;28920;59.862;30.636;2022-09-16T06:38:45;5.32;;;1.80;;
43325;SDS011;28920;59.862;30.636;2022-09-16T06:41:14;2.90;;;1.55;;
43325;SDS011;28920;59.862;30.636;2022-09-16T06:43:45;5.10;;;2.30;;
43325;SDS011;28920;59.862;30.636;2022-09-16T06:46:14;4.35;;;2.10;;
43325;SDS011;28920;59.862;30.636;2022-09-16T06:48:44;1.65;;;1.42;;
43325;SDS011;28920;59.862;30.636;2022-09-16T06:53:44;3.17;;;1.50;;
43325;SDS011;28920;59.862;30.636;2022-09-16T06:56:13;3.40;;;1.45;;
43325;SDS011;28920;59.862;30.636;2022-09-16T06:58:43;2.50;;;1.73;;
43325;SDS011;28920;59.862;30.636;2022-09-16T07:01:14;4.80;;;3.25;;
43325;SDS011;28920;59.862;30.636;2022-09-16T07:03:44;1.70;;;1.30;;
43325;SDS011;28920;59.862;30.636;2022-09-16T07:06:13;3.05;;;1.50;;
43325;SDS011;28920;59.862;30.636;2022-09-16T07:08:43;3.80;;;2.15;;
43325;SDS011;28920;59.862;30.636;2022-09-16T07:11:12;2.78;;;1.60;;
43325;SDS011;28920;59.862;30.636;2022-09-16T07:13:41;2.28;;;1.12;;
43325;SDS011;28920;59.862;30.636;2022-09-16T07:16:12;4.90;;;1.80;;
43325;SDS011;28920;59.862;30.636;2022-09-16T07:18:41;5.55;;;1.60;;
43325;SDS011;28920;59.862;30.636;2022-09-16T07:21:10;2.25;;;1.52;;
43325;SDS011;28920;59.862;30.636;2022-09-16T07:23:40;4.20;;;1.77;;
43325;SDS011;28920;59.862;30.636;2022-09-16T07:26:09;1.75;;;1.20;;
43325;SDS011;28920;59.862;30.636;2022-09-16T07:28:39;1.58;;;1.37;;
43325;SDS011;28920;59.862;30.636;2022-09-16T07:31:08;1.33;;;1.23;;
43325;SDS011;28920;59.862;30.636;2022-09-16T07:33:39;6.68;;;1.98;;
43325;SDS011;28920;59.862;30.636;2022-09-16T07:36:11;2.40;;;1.00;;
43325;SDS011;28920;59.862;30.636;2022-09-16T07:38:40;4.22;;;1.45;;
43325;SDS011;28920;59.862;30.636;2022-09-16T07:41:09;6.47;;;1.92;;
43325;SDS011;28920;59.862;30.636;2022-09-16T07:43:39;2.22;;;1.50;;
43325;SDS011;28920;59.862;30.636;2022-09-16T07:46:07;3.65;;;1.42;;
43325;SDS011;28920;59.862;30.636;2022-09-16T07:48:36;3.80;;;1.40;;
43325;SDS011;28920;59.862;30.636;2022-09-16T07:51:06;3.87;;;1.50;;
43325;SDS011;28920;59.862;30.636;2022-09-16T07:53:35;2.20;;;1.52;;
43325;SDS011;28920;59.862;30.636;2022-09-16T07:56:05;2.22;;;1.50;;
43325;SDS011;28920;59.862;30.636;2022-09-16T07:58:34;5.10;;;1.63;;
43325;SDS011;28920;59.862;30.636;2022-09-16T08:01:03;6.65;;;2.58;;
43325;SDS011;28920;59.862;30.636;2022-09-16T08:03:33;4.62;;;2.10;;
43325;SDS011;28920;59.862;30.636;2022-09-16T08:06:04;3.55;;;2.05;;
43325;SDS011;28920;59.862;30.636;2022-09-16T08:08:33;4.80;;;1.95;;
43325;SDS011;28920;59.862;30.636;2022-09-16T08:11:01;6.97;;;2.60;;
43325;SDS011;28920;59.862;30.636;2022-09-16T08:13:30;5.05;;;2.70;;
43325;SDS011;28920;59.862;30.636;2022-09-16T08:16:01;6.03;;;3.87;;
43325;SDS011;28920;59.862;30.636;2022-09-16T08:18:30;9.20;;;3.92;;
43325;SDS011;28920;59.862;30.636;2022-09-16T08:20:58;5.35;;;4.20;;
43325;SDS011;28920;59.862;30.636;2022-09-16T08:23:32;6.10;;;4.68;;
43325;SDS011;28920;59.862;30.636;2022-09-16T08:26:00;7.05;;;4.35;;
43325;SDS011;28920;59.862;30.636;2022-09-16T08:28:28;4.95;;;3.40;;
43325;SDS011;28920;59.862;30.636;2022-09-16T08:30:57;5.62;;;4.43;;
43325;SDS011;28920;59.862;30.636;2022-09-16T08:33:26;5.87;;;3.70;;
43325;SDS011;28920;59.862;30.636;2022-09-16T08:35:58;5.72;;;3.55;;
43325;SDS011;28920;59.862;30.636;2022-09-16T08:38:26;5.20;;;3.87;;
43325;SDS011;28920;59.862;30.636;2022-09-16T08:40:57;3.95;;;3.55;;
43325;SDS011;28920;59.862;30.636;2022-09-16T08:43:34;6.55;;;2.97;;
43325;SDS011;28920;59.862;30.636;2022-09-16T08:46:08;3.08;;;2.10;;
43325;SDS011;28920;59.862;30.636;2022-09-16T08:48:45;8.98;;;2.37;;
43325;SDS011;28920;59.862;30.636;2022-09-16T08:51:19;3.85;;;2.10;;
43325;SDS011;28920;59.862;30.636;2022-09-16T08:53:51;4.72;;;1.95;;
43325;SDS011;28920;59.862;30.636;2022-09-16T08:56:26;2.10;;;1.73;;
43325;SDS011;28920;59.862;30.636;2022-09-16T08:58:57;5.40;;;2.33;;
43325;SDS011;28920;59.862;30.636;2022-09-16T09:01:28;5.75;;;2.87;;
43325;SDS011;28920;59.862;30.636;2022-09-16T09:04:02;2.70;;;1.83;;
43325;SDS011;28920;59.862;30.636;2022-09-16T09:06:35;6.40;;;2.53;;
43325;SDS011;28920;59.862;30.636;2022-09-16T09:09:28;5.47;;;2.20;;
43325;SDS011;28920;59.862;30.636;2022-09-16T09:12:12;4.75;;;1.80;;
43325;SDS011;28920;59.862;30.636;2022-09-16T09:14:51;4.80;;;2.30;;
43325;SDS011;28920;59.862;30.636;2022-09-16T09:17:33;5.25;;;2.50;;
43325;SDS011;28920;59.862;30.636;2022-09-16T09:20:13;4.03;;;2.42;;
43325;SDS011;28920;59.862;30.636;2022-09-16T09:22:53;5.07;;;2.05;;
43325;SDS011;28920;59.862;30.636;2022-09-16T09:25:33;4.68;;;2.10;;
43325;SDS011;28920;59.862;30.636;2022-09-16T09:28:13;5.78;;;2.10;;
43325;SDS011;28920;59.862;30.636;2022-09-16T09:30:55;3.55;;;1.92;;
43325;SDS011;28920;59.862;30.636;2022-09-16T09:33:32;6.05;;;2.00;;
43325;SDS011;28920;59.862;30.636;2022-09-16T09:36:13;3.78;;;1.90;;
43325;SDS011;28920;59.862;30.636;2022-09-16T09:38:55;6.47;;;3.45;;
43325;SDS011;28920;59.862;30.636;2022-09-16T09:41:36;4.60;;;2.40;;
43325;SDS011;28920;59.862;30.636;2022-09-16T09:44:17;6.32;;;2.33;;
43325;SDS011;28920;59.862;30.636;2022-09-16T09:47:07;3.72;;;1.52;;
43325;SDS011;28920;59.862;30.636;2022-09-16T09:49:40;4.45;;;2.42;;
43325;SDS011;28920;59.862;30.636;2022-09-16T09:52:13;1.92;;;1.48;;
43325;SDS011;28920;59.862;30.636;2022-09-16T09:54:44;7.50;;;1.70;;
43325;SDS011;28920;59.862;30.636;2022-09-16T09:57:18;2.50;;;1.58;;
43325;SDS011;28920;59.862;30.636;2022-09-16T09:59:54;4.12;;;2.30;;
43325;SDS011;28920;59.862;30.636;2022-09-16T10:02:38;6.30;;;3.22;;
43325;SDS011;28920;59.862;30.636;2022-09-16T10:05:09;9.65;;;4.10;;
43325;SDS011;28920;59.862;30.636;2022-09-16T10:07:45;10.55;;;5.57;;
43325;SDS011;28920;59.862;30.636;2022-09-16T10:10:15;7.50;;;4.00;;
43325;SDS011;28920;59.862;30.636;2022-09-16T10:12:47;5.03;;;2.20;;
43325;SDS011;28920;59.862;30.636;2022-09-16T10:15:20;3.15;;;1.90;;
43325;SDS011;28920;59.862;30.636;2022-09-16T10:17:49;4.32;;;1.85;;
43325;SDS011;28920;59.862;30.636;2022-09-16T10:20:23;9.00;;;6.22;;
43325;SDS011;28920;59.862;30.636;2022-09-16T10:22:54;6.25;;;3.35;;
43325;SDS011;28920;59.862;30.636;2022-09-16T10:25:25;6.70;;;2.42;;
43325;SDS011;28920;59.862;30.636;2022-09-16T10:27:56;2.42;;;1.08;;
43325;SDS011;28920;59.862;30.636;2022-09-16T10:30:28;5.97;;;2.40;;
43325;SDS011;28920;59.862;30.636;2022-09-16T10:33:00;12.80;;;5.53;;
43325;SDS011;28920;59.862;30.636;2022-09-16T10:35:30;11.63;;;5.85;;
43325;SDS011;28920;59.862;30.636;2022-09-16T10:38:01;10.27;;;6.62;;
43325;SDS011;28920;59.862;30.636;2022-09-16T10:40:32;4.22;;;2.78;;
43325;SDS011;28920;59.862;30.636;2022-09-16T10:43:01;6.72;;;4.65;;
43325;SDS011;28920;59.862;30.636;2022-09-16T10:45:33;4.57;;;1.23;;
43325;SDS011;28920;59.862;30.636;2022-09-16T10:48:03;2.17;;;1.23;;
43325;SDS011;28920;59.862;30.636;2022-09-16T10:50:37;4.20;;;1.10;;
43325;SDS011;28920;59.862;30.636;2022-09-16T10:53:19;3.92;;;1.20;;
43325;SDS011;28920;59.862;30.636;2022-09-16T10:55:55;2.55;;;1.23;;
43325;SDS011;28920;59.862;30.636;2022-09-16T10:58:24;2.92;;;1.90;;
43325;SDS011;28920;59.862;30.636;2022-09-16T11:00:58;4.40;;;1.90;;
43325;SDS011;28920;59.862;30.636;2022-09-16T11:06:41;5.53;;;1.55;;
43325;SDS011;28920;59.862;30.636;2022-09-16T11:11:57;3.40;;;1.62;;
43325;SDS011;28920;59.862;30.636;2022-09-16T11:14:41;3.70;;;1.67;;
43325;SDS011;28920;59.862;30.636;2022-09-16T11:17:21;4.25;;;2.78;;
43325;SDS011;28920;59.862;30.636;2022-09-16T11:20:01;5.97;;;2.80;;
43325;SDS011;28920;59.862;30.636;2022-09-16T11:22:44;5.07;;;2.87;;
43325;SDS011;28920;59.862;30.636;2022-09-16T11:25:22;6.90;;;2.85;;
43325;SDS011;28920;59.862;30.636;2022-09-16T11:28:07;4.78;;;2.25;;
43325;SDS011;28920;59.862;30.636;2022-09-16T11:31:04;5.47;;;3.10;;
43325;SDS011;28920;59.862;30.636;2022-09-16T11:33:40;2.80;;;1.05;;
43325;SDS011;28920;59.862;30.636;2022-09-16T11:36:19;3.30;;;2.10;;
43325;SDS011;28920;59.862;30.636;2022-09-16T11:39:04;4.18;;;2.28;;
43325;SDS011;28920;59.862;30.636;2022-09-16T11:41:44;4.25;;;3.33;;
43325;SDS011;28920;59.862;30.636;2022-09-16T11:44:20;3.55;;;2.00;;
43325;SDS011;28920;59.862;30.636;2022-09-16T11:47:00;4.40;;;2.60;;
43325;SDS011;28920;59.862;30.636;2022-09-16T11:49:45;4.10;;;1.60;;
43325;SDS011;28920;59.862;30.636;2022-09-16T11:52:31;3.40;;;2.00;;
43325;SDS011;28920;59.862;30.636;2022-09-16T11:55:15;4.05;;;3.03;;
43325;SDS011;28920;59.862;30.636;2022-09-16T11:57:53;1.92;;;1.40;;
43325;SDS011;28920;59.862;30.636;2022-09-16T12:00:24;2.60;;;1.73;;
43325;SDS011;28920;59.862;30.636;2022-09-16T12:02:55;2.20;;;1.37;;
43325;SDS011;28920;59.862;30.636;2022-09-16T12:05:29;4.12;;;1.60;;
43325;SDS011;28920;59.862;30.636;2022-09-16T12:08:05;4.32;;;2.20;;
43325;SDS011;28920;59.862;30.636;2022-09-16T12:10:38;5.78;;;1.80;;
43325;SDS011;28920;59.862;30.636;2022-09-16T12:13:13;4.35;;;1.67;;
43325;SDS011;28920;59.862;30.636;2022-09-16T12:15:46;10.57;;;5.72;;
43325;SDS011;28920;59.862;30.636;2022-09-16T12:18:18;8.13;;;4.90;;
43325;SDS011;28920;59.862;30.636;2022-09-16T12:20:52;5.18;;;2.47;;
43325;SDS011;28920;59.862;30.636;2022-09-16T12:23:25;3.35;;;1.52;;
43325;SDS011;28920;59.862;30.636;2022-09-16T12:25:59;3.83;;;2.42;;
43325;SDS011;28920;59.862;30.636;2022-09-16T12:28:33;6.55;;;2.70;;
43325;SDS011;28920;59.862;30.636;2022-09-16T12:31:07;3.12;;;1.20;;
43325;SDS011;28920;59.862;30.636;2022-09-16T12:33:42;4.07;;;1.62;;
43325;SDS011;28920;59.862;30.636;2022-09-16T12:36:19;3.28;;;2.03;;
43325;SDS011;28920;59.862;30.636;2022-09-16T12:38:51;4.37;;;1.40;;
43325;SDS011;28920;59.862;30.636;2022-09-16T12:41:28;2.25;;;1.20;;
43325;SDS011;28920;59.862;30.636;2022-09-16T12:44:19;2.10;;;1.30;;
43325;SDS011;28920;59.862;30.636;2022-09-16T12:47:22;2.65;;;1.20;;
43325;SDS011;28920;59.862;30.636;2022-09-16T12:50:12;3.33;;;1.60;;
43325;SDS011;28920;59.862;30.636;2022-09-16T12:53:00;6.85;;;2.50;;
43325;SDS011;28920;59.862;30.636;2022-09-16T12:55:48;4.25;;;1.23;;
43325;SDS011;28920;59.862;30.636;2022-09-16T13:01:19;5.00;;;3.15;;
43325;SDS011;28920;59.862;30.636;2022-09-16T13:03:51;3.35;;;2.03;;
43325;SDS011;28920;59.862;30.636;2022-09-16T13:06:24;2.83;;;1.33;;
43325;SDS011;28920;59.862;30.636;2022-09-16T13:08:55;3.60;;;1.30;;
43325;SDS011;28920;59.862;30.636;2022-09-16T13:11:26;3.50;;;1.67;;
43325;SDS011;28920;59.862;30.636;2022-09-16T13:13:56;2.25;;;1.42;;
43325;SDS011;28920;59.862;30.636;2022-09-16T13:16:27;2.90;;;1.80;;
43325;SDS011;28920;59.862;30.636;2022-09-16T13:19:06;5.22;;;1.73;;
43325;SDS011;28920;59.862;30.636;2022-09-16T13:21:48;4.53;;;2.33;;
43325;SDS011;28920;59.862;30.636;2022-09-16T13:24:24;4.12;;;1.70;;
43325;SDS011;28920;59.862;30.636;2022-09-16T13:26:57;3.45;;;1.50;;
43325;SDS011;28920;59.862;30.636;2022-09-16T13:29:37;2.10;;;1.25;;
43325;SDS011;28920;59.862;30.636;2022-09-16T13:32:25;2.55;;;1.50;;
43325;SDS011;28920;59.862;30.636;2022-09-16T13:35:00;2.45;;;1.30;;
43325;SDS011;28920;59.862;30.636;2022-09-16T13:37:29;3.50;;;1.60;;
43325;SDS011;28920;59.862;30.636;2022-09-16T13:40:08;4.62;;;2.00;;
43325;SDS011;28920;59.862;30.636;2022-09-16T13:42:44;2.45;;;1.27;;
43325;SDS011;28920;59.862;30.636;2022-09-16T13:48:04;1.92;;;1.10;;
43325;SDS011;28920;59.862;30.636;2022-09-16T13:50:40;1.52;;;1.08;;
43325;SDS011;28920;59.862;30.636;2022-09-16T13:53:15;2.55;;;0.93;;
43325;SDS011;28920;59.862;30.636;2022-09-16T13:55:51;2.35;;;1.45;;
43325;SDS011;28920;59.862;30.636;2022-09-16T13:58:23;3.65;;;1.80;;
43325;SDS011;28920;59.862;30.636;2022-09-16T14:00:59;5.62;;;2.60;;
43325;SDS011;28920;59.862;30.636;2022-09-16T14:03:37;3.50;;;2.03;;
43325;SDS011;28920;59.862;30.636;2022-09-16T14:09:27;4.15;;;1.87;;
43325;SDS011;28920;59.862;30.636;2022-09-16T14:12:05;14.15;;;6.18;;
43325;SDS011;28920;59.862;30.636;2022-09-16T14:14:39;13.02;;;5.97;;
43325;SDS011;28920;59.862;30.636;2022-09-16T14:17:13;6.57;;;3.10;;
43325;SDS011;28920;59.862;30.636;2022-09-16T14:19:44;5.55;;;2.05;;
43325;SDS011;28920;59.862;30.636;2022-09-16T14:22:15;2.20;;;0.93;;
43325;SDS011;28920;59.862;30.636;2022-09-16T14:24:47;2.60;;;0.82;;
43325;SDS011;28920;59.862;30.636;2022-09-16T14:27:20;2.65;;;1.23;;
43325;SDS011;28920;59.862;30.636;2022-09-16T14:29:53;2.80;;;1.20;;
43325;SDS011;28920;59.862;30.636;2022-09-16T14:32:26;2.78;;;1.60;;
43325;SDS011;28920;59.862;30.636;2022-09-16T14:34:57;4.07;;;1.73;;
43325;SDS011;28920;59.862;30.636;2022-09-16T14:37:29;4.97;;;2.20;;
43325;SDS011;28920;59.862;30.636;2022-09-16T14:40:02;4.90;;;2.00;;
43325;SDS011;28920;59.862;30.636;2022-09-16T14:42:34;7.45;;;2.65;;
43325;SDS011;28920;59.862;30.636;2022-09-16T14:45:04;4.22;;;2.35;;
43325;SDS011;28920;59.862;30.636;2022-09-16T14:47:34;4.82;;;3.65;;
43325;SDS011;28920;59.862;30.636;2022-09-16T14:50:06;3.83;;;2.33;;
43325;SDS011;28920;59.862;30.636;2022-09-16T14:52:38;3.55;;;2.30;;
43325;SDS011;28920;59.862;30.636;2022-09-16T14:55:07;3.87;;;1.98;;
43325;SDS011;28920;59.862;30.636;2022-09-16T14:57:42;4.90;;;1.98;;
43325;SDS011;28920;59.862;30.636;2022-09-16T15:00:12;3.30;;;1.60;;
43325;SDS011;28920;59.862;30.636;2022-09-16T15:02:42;1.95;;;1.60;;
43325;SDS011;28920;59.862;30.636;2022-09-16T15:05:17;3.03;;;1.73;;
43325;SDS011;28920;59.862;30.636;2022-09-16T15:07:49;3.33;;;1.50;;
43325;SDS011;28920;59.862;30.636;2022-09-16T15:10:21;3.92;;;1.45;;
43325;SDS011;28920;59.862;30.636;2022-09-16T15:12:54;2.47;;;1.30;;
43325;SDS011;28920;59.862;30.636;2022-09-16T15:15:25;2.17;;;1.17;;
43325;SDS011;28920;59.862;30.636;2022-09-16T15:17:55;2.55;;;1.98;;
43325;SDS011;28920;59.862;30.636;2022-09-16T15:20:26;3.45;;;1.05;;
43325;SDS011;28920;59.862;30.636;2022-09-16T15:22:56;3.47;;;1.30;;
43325;SDS011;28920;59.862;30.636;2022-09-16T15:25:26;5.62;;;0.98;;
43325;SDS011;28920;59.862;30.636;2022-09-16T15:28:04;2.40;;;1.10;;
43325;SDS011;28920;59.862;30.636;2022-09-16T15:30:33;2.65;;;1.17;;
43325;SDS011;28920;59.862;30.636;2022-09-16T15:33:01;1.90;;;0.98;;
43325;SDS011;28920;59.862;30.636;2022-09-16T15:35:29;3.10;;;0.93;;
43325;SDS011;28920;59.862;30.636;2022-09-16T15:38:09;2.85;;;1.20;;
43325;SDS011;28920;59.862;30.636;2022-09-16T15:40:38;3.22;;;1.00;;
43325;SDS011;28920;59.862;30.636;2022-09-16T15:43:12;1.52;;;0.82;;
43325;SDS011;28920;59.862;30.636;2022-09-16T15:45:43;3.12;;;1.35;;
43325;SDS011;28920;59.862;30.636;2022-09-16T15:48:22;2.55;;;1.00;;
43325;SDS011;28920;59.862;30.636;2022-09-16T15:50:53;14.57;;;5.60;;